Time;durP1;ratioP1;P1;durP2;ratioP2;P2;SDS_P1;SDS_P2;PMS_P1;PMS_P2;Temp;Humidity;BMP_temperature;BMP_pressure;BME280_temperature;BME280_humidity;BME280_pressure;Samples;Min_cycle;Max_cycle;Signal;HPM_P1;HPM_P2
2023/11/18 00:02:20;;;;;;;11.15;9.63;;;;;;;8.11;84.02;101052.59;10206941;28;20054;-68
2023/11/18 00:07:21;;;;;;;13.18;10.10;;;;;;;8.11;83.95;101056.06;10196494;28;20051;-68
2023/11/18 00:12:24;;;;;;;13.63;11.20;;;;;;;8.05;83.86;101043.19;10236196;28;20075;-67
2023/11/18 00:17:29;;;;;;;;;;;;;;;8.05;83.75;101052.94;10215387;28;20119;-68
2023/11/18 00:22:30;;;;;;;11.50;9.40;;;;;;;8.01;83.11;101049.59;10197728;28;20049;-69
2023/11/18 00:27:31;;;;;;;11.25;10.15;;;;;;;7.97;83.64;101050.69;10204959;28;20118;-69
2023/11/18 00:32:34;;;;;;;11.75;9.88;;;;;;;7.91;83.49;101051.06;10204314;28;20051;-68
2023/11/18 00:37:35;;;;;;;11.93;10.20;;;;;;;7.94;83.94;101057.06;10187183;28;20070;-69
2023/11/18 00:42:38;;;;;;;12.18;9.68;;;;;;;7.92;83.95;101052.75;10192523;28;20090;-68
2023/11/18 00:47:41;;;;;;;11.52;10.02;;;;;;;7.92;83.61;101050.13;10206822;28;20182;-68
2023/11/18 00:52:42;;;;;;;12.48;9.80;;;;;;;7.82;83.10;101048.91;10195798;28;20043;-69
2023/11/18 00:57:44;;;;;;;10.95;9.65;;;;;;;7.83;83.36;101058.59;10206176;28;20138;-69
2023/11/18 01:02:48;;;;;;;12.40;10.15;;;;;;;7.78;83.19;101061.50;10181955;28;20059;-68
2023/11/18 01:07:53;;;;;;;11.38;10.18;;;;;;;7.78;83.54;101065.00;10205588;28;20094;-67
2023/11/18 01:12:55;;;;;;;15.57;13.15;;;;;;;7.83;83.59;101074.50;10206090;28;20669;-68
2023/11/18 01:17:57;;;;;;;17.27;13.30;;;;;;;7.77;83.80;101073.88;10206014;28;20043;-70
2023/11/18 01:22:59;;;;;;;12.40;10.68;;;;;;;7.79;83.90;101074.66;10207040;28;20051;-67
2023/11/18 01:28:00;;;;;;;12.88;11.55;;;;;;;7.81;84.27;101079.88;10203498;28;20639;-68
2023/11/18 01:33:02;;;;;;;12.75;10.90;;;;;;;7.79;83.84;101079.09;10201577;28;20059;-68
2023/11/18 01:38:05;;;;;;;13.07;10.48;;;;;;;7.67;83.99;101080.66;10205162;28;20126;-68
2023/11/18 01:43:12;;;;;;;10.75;9.73;;;;;;;7.69;84.34;101067.31;10205646;28;20066;-67
2023/11/18 01:48:15;;;;;;;11.05;9.95;;;;;;;7.62;84.63;101066.78;10179979;28;20073;-68
2023/11/18 01:53:16;;;;;;;11.63;10.43;;;;;;;7.50;83.96;101068.31;10205842;28;20047;-68
2023/11/18 01:58:19;;;;;;;15.10;11.30;;;;;;;7.34;83.37;101078.91;10208819;28;20233;-68
2023/11/18 02:03:21;;;;;;;12.20;10.90;;;;;;;7.21;84.03;101070.75;10193979;28;20658;-67
2023/11/18 02:08:25;;;;;;;13.57;12.38;;;;;;;7.13;83.02;101080.03;10202878;28;20059;-69
2023/11/18 02:13:31;;;;;;;14.35;12.32;;;;;;;7.11;82.07;101085.41;10205690;28;20624;-66
2023/11/18 02:18:33;;;;;;;14.02;12.75;;;;;;;6.97;82.23;101080.84;10203585;28;20043;-70
2023/11/18 02:23:37;;;;;;;13.15;10.73;;;;;;;6.98;82.64;101087.84;10201841;28;20063;-68
2023/11/18 02:28:38;;;;;;;10.85;9.75;;;;;;;7.07;82.60;101092.66;10203124;28;20573;-68
2023/11/18 02:33:50;;;;;;;9.15;8.27;;;;;;;7.03;81.21;101090.25;10185887;28;20246;-68
2023/11/18 02:38:55;;;;;;;9.73;8.43;;;;;;;6.92;80.35;101100.53;10163089;28;20051;-68
2023/11/18 02:43:58;;;;;;;9.43;7.68;;;;;;;6.85;81.12;101095.56;10202422;28;20142;-68
2023/11/18 02:48:59;;;;;;;8.27;7.45;;;;;;;6.80;80.57;101091.44;10196047;28;20142;-68
2023/11/18 02:54:01;;;;;;;11.13;8.57;;;;;;;6.84;80.58;101095.66;10190807;28;20521;-69
2023/11/18 02:59:05;;;;;;;8.52;7.75;;;;;;;6.61;79.70;101084.44;10209904;28;20063;-67
2023/11/18 03:04:08;;;;;;;8.63;7.80;;;;;;;6.23;80.57;101067.84;10211467;28;20062;-68
2023/11/18 03:09:10;;;;;;;9.07;7.15;;;;;;;6.10;80.91;101071.09;10208450;28;20048;-66
2023/11/18 03:14:12;;;;;;;8.20;7.45;;;;;;;6.19;80.74;101073.28;10190137;28;20075;-69
2023/11/18 03:19:13;;;;;;;8.23;7.30;;;;;;;6.16;80.41;101072.59;10193677;28;20062;-69
2023/11/18 03:24:16;;;;;;;12.27;7.95;;;;;;;5.98;79.96;101071.69;10210883;28;20734;-67
2023/11/18 03:29:17;;;;;;;10.10;7.47;;;;;;;5.77;80.57;101062.97;10210962;28;20055;-68
2023/11/18 03:34:20;;;;;;;8.90;8.00;;;;;;;5.83;80.96;101062.69;10211144;28;20059;-67
2023/11/18 03:39:21;;;;;;;9.02;7.82;;;;;;;5.94;80.67;101070.94;10198606;28;20414;-68
2023/11/18 03:44:26;;;;;;;18.35;7.82;;;;;;;5.77;79.38;101086.75;10212959;28;20062;-68
2023/11/18 03:49:27;;;;;;;9.20;7.53;;;;;;;5.50;79.76;101089.75;10210546;28;20102;-68
2023/11/18 03:54:29;;;;;;;8.60;6.43;;;;;;;5.38;79.99;101090.31;10212109;28;20133;-66
2023/11/18 03:59:34;;;;;;;13.82;8.00;;;;;;;5.55;80.56;101111.50;10213433;28;20063;-67
2023/11/18 04:04:35;;;;;;;8.00;6.70;;;;;;;5.45;80.40;101086.44;10208329;28;20661;-67
2023/11/18 04:09:37;;;;;;;7.82;7.03;;;;;;;5.57;80.93;101100.88;10210014;28;20153;-68
2023/11/18 04:14:39;;;;;;;9.65;7.93;;;;;;;5.58;80.33;101103.44;10208068;28;20075;-68
2023/11/18 04:19:41;;;;;;;7.75;6.95;;;;;;;5.53;80.79;101089.59;10204942;28;20043;-67
2023/11/18 04:24:45;;;;;;;9.82;8.02;;;;;;;5.60;80.70;101079.59;10229499;28;20055;-67
2023/11/18 04:29:47;;;;;;;10.10;8.50;;;;;;;5.66;81.30;101064.34;10220199;28;20058;-67
2023/11/18 04:34:51;;;;;;;10.93;8.48;;;;;;;5.62;81.72;101062.75;10191082;28;20057;-68
2023/11/18 04:39:53;;;;;;;11.68;9.57;;;;;;;5.77;81.93;101068.25;10207336;28;21550;-67
2023/11/18 04:44:59;;;;;;;12.77;9.27;;;;;;;5.83;82.54;101082.03;10210606;28;20250;-70
2023/11/18 04:50:00;;;;;;;12.05;9.43;;;;;;;5.75;82.99;101089.47;10178956;28;20102;-68
2023/11/18 04:55:05;;;;;;;12.10;9.75;;;;;;;5.83;83.32;101078.53;10181736;28;20061;-67
2023/11/18 05:00:10;;;;;;;;;;;;;;;5.93;82.75;101093.03;10169035;28;20047;-68
2023/11/18 05:05:12;;;;;;;10.98;8.90;;;;;;;5.95;82.84;101096.44;10207759;28;19942;-67
2023/11/18 05:10:16;;;;;;;10.80;8.75;;;;;;;5.91;82.88;101072.88;10190385;28;20070;-67
2023/11/18 05:15:18;;;;;;;10.20;8.48;;;;;;;5.96;82.59;101069.09;10206607;28;20141;-67
2023/11/18 05:20:21;;;;;;;12.15;8.73;;;;;;;5.95;82.67;101070.00;10206647;28;20055;-67
2023/11/18 05:25:22;;;;;;;10.98;8.52;;;;;;;5.97;82.78;101057.59;10202436;28;20047;-67
2023/11/18 05:30:24;;;;;;;10.55;9.35;;;;;;;5.96;82.74;101061.16;10202633;28;20592;-68
2023/11/18 05:35:28;;;;;;;11.95;8.98;;;;;;;5.99;83.32;101047.84;10192488;28;20055;-67
2023/11/18 05:40:30;;;;;;;9.00;7.97;;;;;;;6.06;83.65;101034.31;10197314;28;20043;-66
2023/11/18 05:45:44;;;;;;;15.65;12.20;;;;;;;6.01;83.11;101031.91;10185825;28;20055;-68
2023/11/18 05:50:45;;;;;;;11.90;8.90;;;;;;;6.02;83.23;101030.97;10204363;28;20047;-68
2023/11/18 05:55:49;;;;;;;12.70;9.83;;;;;;;6.00;82.32;101023.13;10202457;28;20074;-67
2023/11/18 06:00:51;;;;;;;13.00;9.23;;;;;;;5.89;82.83;101021.91;10207980;28;20054;-67
2023/11/18 06:05:53;;;;;;;14.30;9.93;;;;;;;5.86;83.54;101040.56;10204541;28;20473;-67
2023/11/18 06:10:56;;;;;;;18.27;13.52;;;;;;;5.81;83.21;101040.75;10184447;28;20079;-71
2023/11/18 06:15:58;;;;;;;13.68;10.05;;;;;;;5.80;83.84;101033.75;10201586;28;20073;-68
2023/11/18 06:21:00;;;;;;;27.05;23.17;;;;;;;5.84;84.28;101048.56;10189012;28;20055;-68
2023/11/18 06:26:02;;;;;;;18.70;12.82;;;;;;;5.91;84.74;101031.44;10188976;28;20055;-67
2023/11/18 06:31:04;;;;;;;12.95;10.57;;;;;;;5.98;85.21;101056.69;10191637;28;20055;-68
2023/11/18 06:36:07;;;;;;;15.45;11.43;;;;;;;6.01;85.29;101053.88;10211454;28;20098;-69
2023/11/18 06:41:11;;;;;;;13.30;11.32;;;;;;;6.07;86.12;101047.47;10196527;28;20059;-69
2023/11/18 06:46:14;;;;;;;17.27;12.48;;;;;;;6.13;86.24;101051.59;10202209;28;20482;-70
2023/11/18 06:51:17;;;;;;;15.90;11.55;;;;;;;6.22;86.09;101039.72;10201445;28;20106;-68
2023/11/18 06:56:19;;;;;;;14.70;11.10;;;;;;;6.17;85.25;101039.91;10171768;28;20055;-67
2023/11/18 07:01:21;;;;;;;15.82;12.73;;;;;;;6.18;85.30;101055.72;10212898;28;20565;-69
2023/11/18 07:06:23;;;;;;;18.85;11.50;;;;;;;5.96;85.91;101058.53;10196966;29;20082;-67
2023/11/18 07:11:24;;;;;;;33.28;13.40;;;;;;;5.92;87.53;101050.81;10201244;28;20078;-67
2023/11/18 07:16:28;;;;;;;20.65;13.77;;;;;;;5.87;88.63;101043.13;10211140;28;20710;-67
2023/11/18 07:21:33;;;;;;;19.40;12.38;;;;;;;6.08;88.29;101043.88;10195988;28;20055;-68
2023/11/18 07:26:35;;;;;;;16.92;12.43;;;;;;;6.09;87.99;101034.16;10211516;28;20252;-69
2023/11/18 07:31:37;;;;;;;15.82;11.23;;;;;;;5.96;88.60;101032.09;10213670;28;20051;-68
2023/11/18 07:36:40;;;;;;;21.67;14.38;;;;;;;5.96;88.53;101045.31;10201718;28;20139;-66
2023/11/18 07:41:44;;;;;;;22.48;14.38;;;;;;;6.00;87.88;101062.78;10194459;28;20079;-67
2023/11/18 07:46:45;;;;;;;21.88;13.85;;;;;;;6.03;88.17;101076.75;10210464;28;20130;-68
2023/11/18 07:51:50;;;;;;;17.60;12.15;;;;;;;6.04;88.41;101070.56;10201399;28;20105;-70
2023/11/18 07:56:53;;;;;;;21.25;12.77;;;;;;;5.96;89.03;101074.38;10187800;28;20063;-70
2023/11/18 08:02:00;;;;;;;22.92;15.13;;;;;;;6.05;88.75;101086.34;10202802;28;20109;-70
2023/11/18 08:07:06;;;;;;;20.80;12.65;;;;;;;6.09;88.80;101081.75;10195534;28;20062;-74
2023/11/18 08:12:10;;;;;;;16.45;11.48;;;;;;;6.14;89.48;101077.06;10210715;28;20114;-72
2023/11/18 08:17:13;;;;;;;;;;;;;;;6.17;89.64;101063.69;10200855;28;20672;-70
2023/11/18 08:22:18;;;;;;;21.60;13.13;;;;;;;6.27;89.87;101070.25;10197447;28;19930;-70
2023/11/18 08:27:22;;;;;;;18.45;11.95;;;;;;;6.39;89.52;101086.47;10209260;28;20059;-70
2023/11/18 08:32:24;;;;;;;18.38;12.98;;;;;;;6.44;89.34;101060.63;10204501;28;20047;-67
2023/11/18 08:37:27;;;;;;;19.90;13.65;;;;;;;6.41;89.31;101056.38;10214194;28;20051;-69
2023/11/18 08:42:31;;;;;;;21.70;13.13;;;;;;;6.37;89.55;101055.66;10210931;28;20114;-70
2023/11/18 08:47:33;;;;;;;22.30;13.73;;;;;;;6.36;89.84;101059.25;10202008;28;20071;-68
2023/11/18 08:52:36;;;;;;;16.60;11.30;;;;;;;6.53;89.93;101054.88;10176263;28;20608;-70
2023/11/18 08:57:52;;;;;;;22.90;13.80;;;;;;;6.46;89.84;101042.91;10195385;28;20126;-71
2023/11/18 09:03:01;;;;;;;19.13;12.68;;;;;;;6.50;90.02;101036.50;10205621;28;20062;-68
2023/11/18 09:08:05;;;;;;;21.60;13.98;;;;;;;6.61;90.44;101044.75;10182958;28;20505;-71
2023/11/18 09:13:07;;;;;;;;;;;;;;;6.57;90.12;101040.56;10192721;28;20124;-69
2023/11/18 09:18:10;;;;;;;21.88;13.98;;;;;;;6.52;90.28;101026.72;10198728;28;19927;-70
2023/11/18 09:23:13;;;;;;;20.55;14.55;;;;;;;6.50;91.32;101049.72;10196044;28;20051;-73
2023/11/18 09:28:15;;;;;;;20.38;13.57;;;;;;;6.70;91.30;101051.38;10208461;28;20454;-70
2023/11/18 09:33:32;;;;;;;21.42;13.73;;;;;;;6.78;91.26;101037.75;10183061;28;20579;-70
2023/11/18 09:38:36;;;;;;;19.75;13.38;;;;;;;6.76;91.50;101027.25;10206895;28;20093;-68
2023/11/18 09:43:45;;;;;;;21.65;14.13;;;;;;;6.94;91.23;101043.09;10197216;28;20059;-68
2023/11/18 09:48:52;;;;;;;19.95;12.93;;;;;;;7.02;91.41;101041.75;10162618;28;20195;-70
2023/11/18 09:54:06;;;;;;;19.85;13.25;;;;;;;7.04;91.83;101041.66;10188770;28;20067;-69
2023/11/18 09:59:25;;;;;;;20.63;14.82;;;;;;;7.03;91.77;101046.09;10205268;28;20062;-67
2023/11/18 10:04:31;;;;;;;17.63;12.80;;;;;;;7.12;92.46;101030.69;10207475;28;20145;-67
2023/11/18 10:09:39;;;;;;;19.90;14.50;;;;;;;7.15;92.63;101036.66;10203694;28;20071;-65
2023/11/18 10:14:43;;;;;;;21.27;14.10;;;;;;;7.16;92.94;101034.84;10189875;28;20039;-66
2023/11/18 10:19:55;;;;;;;17.30;14.02;;;;;;;7.18;93.18;101023.25;10204375;28;20047;-68
2023/11/18 10:24:57;;;;;;;19.10;14.63;;;;;;;7.29;93.90;101027.13;10205173;28;20648;-66
2023/11/18 10:30:05;;;;;;;19.63;14.30;;;;;;;7.33;94.26;101033.97;10194301;28;20088;-69
2023/11/18 10:35:10;;;;;;;18.90;13.57;;;;;;;7.36;94.56;101033.78;10183273;28;21481;-67
2023/11/18 10:40:14;;;;;;;17.63;14.55;;;;;;;7.44;94.92;101021.81;10200724;28;20058;-68
2023/11/18 10:45:24;;;;;;;19.65;13.93;;;;;;;7.49;96.16;101007.47;10202313;28;20380;-67
2023/11/18 10:50:31;;;;;;;18.02;14.93;;;;;;;7.55;96.24;101007.13;10194005;28;20067;-67
2023/11/18 10:55:40;;;;;;;18.88;14.30;;;;;;;7.55;96.67;100988.56;10202606;28;20051;-68
2023/11/18 11:00:51;;;;;;;22.42;18.15;;;;;;;7.58;97.95;100975.16;10195632;28;20568;-68
2023/11/18 11:05:54;;;;;;;17.38;15.07;;;;;;;7.56;98.37;100979.69;10203119;28;20047;-68
2023/11/18 11:10:58;;;;;;;16.88;13.40;;;;;;;7.65;98.45;100963.28;10186153;28;20051;-66
2023/11/18 11:16:05;;;;;;;19.93;15.03;;;;;;;7.69;98.24;100961.31;10205559;28;20061;-69
2023/11/18 11:21:19;;;;;;;19.77;13.68;;;;;;;7.66;98.62;100951.75;10206901;28;20054;-67
2023/11/18 11:26:44;;;;;;;14.65;12.82;;;;;;;7.65;99.31;100933.28;10202646;28;20061;-70
2023/11/18 11:32:00;;;;;;;16.80;13.13;;;;;;;7.74;99.20;100925.63;10214033;28;20047;-67
2023/11/18 11:37:05;;;;;;;14.43;11.40;;;;;;;7.81;99.05;100917.31;10197337;28;20043;-68
2023/11/18 11:42:09;;;;;;;18.50;12.85;;;;;;;7.78;99.08;100892.72;10193164;28;20062;-69
2023/11/18 11:47:15;;;;;;;13.40;12.00;;;;;;;7.86;99.07;100888.78;10216587;28;20537;-67
2023/11/18 11:52:29;;;;;;;14.80;12.30;;;;;;;7.94;99.42;100891.81;10193787;28;20497;-68
2023/11/18 11:57:35;;;;;;;17.88;13.50;;;;;;;7.97;99.09;100878.38;10208339;28;20229;-68
2023/11/18 12:02:49;;;;;;;14.90;11.80;;;;;;;7.97;99.20;100862.47;10209629;28;20662;-67
2023/11/18 12:07:52;;;;;;;14.63;11.50;;;;;;;8.04;99.02;100865.63;10207194;28;20065;-69
2023/11/18 12:13:15;;;;;;;13.93;12.05;;;;;;;8.11;98.98;100857.19;10195625;28;20667;-71
2023/11/18 12:18:20;;;;;;;12.73;11.40;;;;;;;8.13;99.37;100841.19;10210795;28;20768;-70
2023/11/18 12:23:25;;;;;;;13.50;11.93;;;;;;;8.19;99.09;100832.00;10211578;28;20070;-68
2023/11/18 12:28:38;;;;;;;14.88;12.25;;;;;;;8.18;99.83;100835.59;10183174;28;20114;-68
2023/11/18 12:33:54;;;;;;;15.95;12.55;;;;;;;8.24;99.68;100821.97;10209021;28;20044;-69
2023/11/18 12:39:50;;;;;;;13.10;11.80;;;;;;;8.30;99.34;100829.53;10211061;28;20094;-70
2023/11/18 12:45:24;;;;;;;11.82;9.98;;;;;;;8.32;99.53;100822.34;10205796;28;20655;-68
2023/11/18 12:50:28;;;;;;;12.07;9.88;;;;;;;8.31;99.79;100815.34;10207875;28;20055;-69
2023/11/18 12:55:31;;;;;;;11.20;9.57;;;;;;;8.38;99.60;100800.75;10221643;23;20047;-69
2023/11/18 13:00:35;;;;;;;11.95;9.75;;;;;;;8.44;99.26;100804.84;10245499;28;20050;-66
2023/11/18 13:05:39;;;;;;;11.75;10.18;;;;;;;8.45;99.38;100786.19;10185124;28;20171;-69
2023/11/18 13:10:41;;;;;;;12.07;10.80;;;;;;;8.47;99.71;100763.06;10183449;28;20058;-70
2023/11/18 13:15:46;;;;;;;12.10;10.47;;;;;;;8.48;100.00;100759.47;10194359;28;20141;-68
2023/11/18 13:20:57;;;;;;;10.68;9.57;;;;;;;8.52;100.00;100748.66;10170805;28;20138;-69
2023/11/18 13:26:05;;;;;;;10.65;9.60;;;;;;;8.52;100.00;100733.56;10207707;28;20527;-68
2023/11/18 13:31:09;;;;;;;11.90;10.70;;;;;;;8.53;100.00;100739.72;10214538;28;20706;-68
2023/11/18 13:36:11;;;;;;;10.77;9.45;;;;;;;8.53;100.00;100735.28;10202832;28;20063;-67
2023/11/18 13:41:28;;;;;;;14.40;12.75;;;;;;;8.49;100.00;100718.69;10213092;28;20162;-67
2023/11/18 13:46:29;;;;;;;;;;;;;;;8.52;100.00;100715.00;10195560;28;20134;-69
2023/11/18 13:51:32;;;;;;;10.82;9.77;;;;;;;8.48;100.00;100706.41;10214763;28;19922;-68
2023/11/18 13:56:34;;;;;;;9.63;8.00;;;;;;;8.54;100.00;100707.81;10184425;28;20504;-72
2023/11/18 14:01:37;;;;;;;9.85;8.70;;;;;;;8.60;100.00;100687.97;10202559;28;20118;-68
2023/11/18 14:06:39;;;;;;;11.68;7.90;;;;;;;8.63;100.00;100693.06;10220914;28;20079;-68
2023/11/18 14:11:41;;;;;;;9.15;7.80;;;;;;;8.61;100.00;100697.63;10210596;28;20198;-68
2023/11/18 14:16:42;;;;;;;10.02;8.07;;;;;;;8.62;100.00;100681.59;10216077;28;20059;-70
2023/11/18 14:21:44;;;;;;;9.77;8.02;;;;;;;8.64;100.00;100681.50;10199193;28;20401;-68
2023/11/18 14:26:46;;;;;;;9.25;7.72;;;;;;;8.66;100.00;100653.06;10208381;28;20117;-68
2023/11/18 14:31:49;;;;;;;8.80;6.65;;;;;;;8.62;100.00;100638.31;10218092;28;20058;-67
2023/11/18 14:36:51;;;;;;;7.40;6.65;;;;;;;8.62;100.00;100648.94;10218505;28;20059;-67
2023/11/18 14:41:54;;;;;;;8.10;6.28;;;;;;;8.63;100.00;100655.91;10212353;28;20146;-69
2023/11/18 14:46:55;;;;;;;6.63;5.38;;;;;;;8.67;100.00;100652.09;10201422;28;20097;-68
2023/11/18 14:51:57;;;;;;;7.20;5.97;;;;;;;8.69;100.00;100658.16;10205819;28;20050;-67
2023/11/18 14:56:59;;;;;;;6.00;5.40;;;;;;;8.67;100.00;100646.81;10222472;28;20059;-68
2023/11/18 15:02:01;;;;;;;5.43;4.93;;;;;;;8.65;100.00;100638.09;10221999;28;20078;-68
2023/11/18 15:07:03;;;;;;;7.50;5.60;;;;;;;8.64;100.00;100647.84;10218437;28;20441;-68
2023/11/18 15:12:09;;;;;;;6.60;4.97;;;;;;;8.57;100.00;100640.41;10222229;28;20059;-69
2023/11/18 15:17:13;;;;;;;4.57;4.10;;;;;;;8.55;100.00;100634.34;10236780;28;20907;-69
2023/11/18 15:22:19;;;;;;;5.05;4.03;;;;;;;8.49;100.00;100623.19;10223762;28;20043;-68
2023/11/18 15:27:21;;;;;;;5.55;4.15;;;;;;;8.46;100.00;100603.97;10224948;28;20633;-67
2023/11/18 15:32:23;;;;;;;4.80;4.10;;;;;;;8.41;100.00;100609.53;10220839;28;20063;-68
2023/11/18 15:37:26;;;;;;;6.40;3.95;;;;;;;8.41;100.00;100601.59;10242005;28;20059;-69
2023/11/18 15:42:30;;;;;;;5.65;3.67;;;;;;;8.35;100.00;100593.16;10218561;28;20059;-72
2023/11/18 15:47:32;;;;;;;4.43;3.28;;;;;;;8.29;100.00;100573.22;10230839;28;20127;-69
2023/11/18 15:52:34;;;;;;;4.00;3.55;;;;;;;8.33;100.00;100574.69;10208871;28;20055;-68
2023/11/18 15:57:38;;;;;;;4.45;3.58;;;;;;;8.24;100.00;100564.69;10218428;28;20063;-73
2023/11/18 16:02:40;;;;;;;5.23;4.03;;;;;;;8.19;100.00;100567.66;10214443;28;20051;-71
2023/11/18 16:07:45;;;;;;;13.10;8.50;;;;;;;8.12;100.00;100561.91;10203306;28;20504;-71
2023/11/18 16:12:48;;;;;;;2.97;2.65;;;;;;;8.10;100.00;100531.97;10197102;28;20206;-69
2023/11/18 16:17:50;;;;;;;6.45;2.78;;;;;;;8.10;100.00;100531.16;10211108;28;20641;-71
2023/11/18 16:22:53;;;;;;;7.97;3.67;;;;;;;8.04;100.00;100521.78;10203187;28;20055;-70
2023/11/18 16:27:59;;;;;;;4.00;2.10;;;;;;;8.03;100.00;100525.41;10201754;28;20070;-68
2023/11/18 16:33:03;;;;;;;6.38;4.20;;;;;;;7.99;100.00;100513.28;10205698;28;20066;-69
2023/11/18 16:38:07;;;;;;;4.45;2.30;;;;;;;7.96;100.00;100487.00;10189768;28;20057;-70
2023/11/18 16:43:08;;;;;;;3.20;1.80;;;;;;;7.99;100.00;100497.38;10200984;28;20058;-71
2023/11/18 16:48:11;;;;;;;3.40;1.70;;;;;;;8.00;100.00;100482.31;10200751;28;20138;-68
2023/11/18 16:53:12;;;;;;;3.88;2.05;;;;;;;8.00;100.00;100450.50;10195939;28;20063;-69
2023/11/18 16:58:14;;;;;;;3.47;1.80;;;;;;;8.06;100.00;100436.84;10218483;28;20232;-69
2023/11/18 17:03:15;;;;;;;3.33;2.83;;;;;;;8.05;100.00;100422.75;10215668;28;20707;-68
2023/11/18 17:08:17;;;;;;;3.80;2.47;;;;;;;8.03;100.00;100426.44;10199967;28;20055;-72
2023/11/18 17:13:19;;;;;;;3.38;2.85;;;;;;;7.95;100.00;100414.53;10214533;28;20070;-70
2023/11/18 17:18:21;;;;;;;3.90;3.00;;;;;;;7.92;100.00;100420.06;10242694;28;20051;-71
2023/11/18 17:23:24;;;;;;;5.50;3.70;;;;;;;7.93;100.00;100418.28;10239607;28;20061;-68
2023/11/18 17:28:30;;;;;;;7.00;3.97;;;;;;;7.94;100.00;100412.00;10219215;28;20062;-70
2023/11/18 17:33:31;;;;;;;5.03;3.50;;;;;;;7.96;100.00;100396.88;10203705;28;20049;-69
2023/11/18 17:38:33;;;;;;;4.88;3.30;;;;;;;8.02;100.00;100391.16;10215816;28;20393;-69
2023/11/18 17:43:34;;;;;;;3.78;2.95;;;;;;;7.95;100.00;100363.34;10205798;28;20067;-68
2023/11/18 17:48:36;;;;;;;3.88;3.50;;;;;;;7.92;100.00;100347.66;10186546;28;20053;-70
2023/11/18 17:53:39;;;;;;;4.93;3.70;;;;;;;7.85;100.00;100355.19;10212372;28;20059;-71
2023/11/18 17:58:40;;;;;;;4.28;3.45;;;;;;;7.94;100.00;100353.69;10211266;28;20042;-68
2023/11/18 18:03:42;;;;;;;6.30;3.55;;;;;;;8.03;100.00;100334.53;10215424;28;20138;-69
2023/11/18 18:08:44;;;;;;;4.32;3.90;;;;;;;7.90;100.00;100323.06;10206801;28;20202;-69
2023/11/18 18:13:46;;;;;;;5.43;4.18;;;;;;;8.02;100.00;100338.13;10216793;28;20142;-68
2023/11/18 18:18:47;;;;;;;5.47;3.85;;;;;;;8.06;100.00;100322.84;10218286;28;20206;-71
2023/11/18 18:23:50;;;;;;;4.60;3.97;;;;;;;8.06;100.00;100310.47;10212369;28;20078;-69
2023/11/18 18:28:51;;;;;;;5.60;4.55;;;;;;;8.09;100.00;100304.94;10206622;28;20058;-72
2023/11/18 18:33:58;;;;;;;9.20;4.80;;;;;;;8.10;100.00;100297.81;10208508;28;20066;-68
2023/11/18 18:38:59;;;;;;;5.07;4.53;;;;;;;8.07;100.00;100304.19;10225296;28;20146;-69
2023/11/18 18:44:01;;;;;;;4.63;4.22;;;;;;;8.17;100.00;100306.19;10217898;28;20055;-71
2023/11/18 18:49:05;;;;;;;5.55;5.05;;;;;;;8.21;100.00;100310.31;10221998;28;21345;-69
2023/11/18 18:54:09;;;;;;;6.47;5.22;;;;;;;8.19;100.00;100296.34;10215052;28;20106;-71
2023/11/18 18:59:10;;;;;;;5.97;5.00;;;;;;;8.25;100.00;100291.44;10204496;28;20101;-69
2023/11/18 19:04:12;;;;;;;5.85;5.28;;;;;;;8.27;100.00;100280.72;10209817;28;20055;-69
2023/11/18 19:09:17;;;;;;;5.78;5.25;;;;;;;8.29;100.00;100286.78;10222645;28;20134;-71
2023/11/18 19:14:18;;;;;;;7.07;5.73;;;;;;;8.30;100.00;100277.84;10203140;28;20645;-71
2023/11/18 19:19:22;;;;;;;6.03;5.43;;;;;;;8.29;100.00;100269.06;10187972;28;20306;-69
2023/11/18 19:24:23;;;;;;;7.68;5.95;;;;;;;8.25;100.00;100256.13;10199482;28;20062;-70
2023/11/18 19:29:26;;;;;;;5.55;5.00;;;;;;;8.26;100.00;100234.81;10204865;28;20043;-69
2023/11/18 19:34:28;;;;;;;5.88;5.38;;;;;;;8.24;100.00;100236.72;10214773;28;20047;-70
2023/11/18 19:39:29;;;;;;;6.03;5.35;;;;;;;8.21;100.00;100236.94;10226184;28;20082;-70
2023/11/18 19:44:40;;;;;;;6.10;5.38;;;;;;;8.17;100.00;100227.50;10216991;28;20047;-71
2023/11/18 19:49:41;;;;;;;5.97;5.47;;;;;;;8.17;100.00;100202.78;10221584;28;20071;-71
2023/11/18 19:54:45;;;;;;;6.35;5.75;;;;;;;8.14;100.00;100195.91;10221114;28;20070;-71
2023/11/18 19:59:48;;;;;;;4.47;4.07;;;;;;;8.16;100.00;100185.19;10235250;28;20130;-71
2023/11/18 20:04:51;;;;;;;6.82;4.90;;;;;;;8.04;100.00;100177.13;10231597;28;20321;-69
2023/11/18 20:09:55;;;;;;;5.68;4.28;;;;;;;8.06;100.00;100163.78;10225426;28;20584;-69
2023/11/18 20:14:56;;;;;;;4.60;3.23;;;;;;;8.09;100.00;100175.03;10219989;28;20106;-72
2023/11/18 20:19:58;;;;;;;4.07;3.08;;;;;;;8.09;100.00;100180.34;10207112;28;20150;-69
2023/11/18 20:24:59;;;;;;;5.03;4.10;;;;;;;8.10;100.00;100191.78;10227182;28;20141;-69
2023/11/18 20:30:04;;;;;;;5.35;3.33;;;;;;;8.05;100.00;100186.78;10229230;28;20118;-69
2023/11/18 20:35:10;;;;;;;6.03;3.53;;;;;;;8.14;100.00;100183.50;10202778;28;20138;-69
2023/11/18 20:40:20;;;;;;;5.78;3.88;;;;;;;8.11;100.00;100167.81;10234108;28;20143;-69
2023/11/18 20:45:22;;;;;;;3.85;3.45;;;;;;;8.17;100.00;100160.34;10226920;28;20158;-70
2023/11/18 20:50:24;;;;;;;4.10;3.50;;;;;;;8.19;100.00;100171.72;10207211;28;20079;-69
2023/11/18 20:55:26;;;;;;;4.88;3.50;;;;;;;8.23;100.00;100159.94;10220961;28;20042;-72
2023/11/18 21:00:30;;;;;;;4.40;3.67;;;;;;;8.22;100.00;100145.81;10199411;28;20043;-69
2023/11/18 21:05:32;;;;;;;4.70;4.18;;;;;;;8.24;100.00;100132.44;10217175;28;20058;-70
2023/11/18 21:10:35;;;;;;;6.10;4.75;;;;;;;8.31;100.00;100128.38;10208648;28;20518;-68
2023/11/18 21:15:37;;;;;;;3.63;3.28;;;;;;;8.34;100.00;100114.06;10217867;28;20170;-68
2023/11/18 21:20:39;;;;;;;4.80;4.30;;;;;;;8.36;100.00;100107.69;10208177;28;20055;-69
2023/11/18 21:25:41;;;;;;;5.78;4.40;;;;;;;8.36;100.00;100102.41;10216474;28;20051;-69
2023/11/18 21:30:42;;;;;;;4.90;3.95;;;;;;;8.30;100.00;100065.69;10211205;28;20126;-69
2023/11/18 21:35:44;;;;;;;4.63;3.83;;;;;;;8.34;100.00;100077.78;10207160;28;20385;-68
2023/11/18 21:40:46;;;;;;;5.15;4.55;;;;;;;8.25;100.00;100078.44;10222679;28;20485;-69
2023/11/18 21:45:48;;;;;;;4.60;4.20;;;;;;;8.26;100.00;100062.44;10216000;28;20505;-69
2023/11/18 21:50:50;;;;;;;5.75;4.47;;;;;;;8.25;100.00;100065.19;10224848;28;20043;-68
2023/11/18 21:55:54;;;;;;;5.00;4.50;;;;;;;8.26;100.00;100043.88;10224259;28;20086;-69
2023/11/18 22:00:56;;;;;;;6.80;5.15;;;;;;;8.26;100.00;100032.44;10224410;28;20157;-68
2023/11/18 22:05:58;;;;;;;5.60;5.10;;;;;;;8.29;100.00;100032.19;10219079;28;20050;-72
2023/11/18 22:11:00;;;;;;;5.28;4.65;;;;;;;8.34;100.00;100050.41;10221178;28;20156;-70
2023/11/18 22:16:03;;;;;;;5.28;4.78;;;;;;;8.36;100.00;100028.13;10207301;28;20055;-67
2023/11/18 22:21:06;;;;;;;4.13;3.80;;;;;;;8.34;100.00;100024.72;10224529;28;20516;-69
2023/11/18 22:26:08;;;;;;;4.30;3.97;;;;;;;8.37;100.00;99994.47;10224966;28;20126;-69
2023/11/18 22:31:12;;;;;;;5.63;3.90;;;;;;;8.35;100.00;99983.13;10223111;28;20069;-68
2023/11/18 22:36:14;;;;;;;5.88;5.28;;;;;;;8.40;100.00;99955.31;10212180;28;20051;-71
2023/11/18 22:41:17;;;;;;;5.25;4.53;;;;;;;8.48;100.00;99950.31;10211369;28;20055;-68
2023/11/18 22:46:18;;;;;;;5.28;4.65;;;;;;;8.44;100.00;99988.63;10219354;28;21598;-70
2023/11/18 22:51:20;;;;;;;5.20;4.38;;;;;;;8.48;100.00;99999.84;10217122;28;20050;-69
2023/11/18 22:56:23;;;;;;;5.82;4.68;;;;;;;8.57;100.00;99985.03;10208527;28;20877;-69
2023/11/18 23:01:26;;;;;;;5.30;4.80;;;;;;;8.51;100.00;99946.56;10205402;28;20210;-71
2023/11/18 23:06:29;;;;;;;5.50;4.63;;;;;;;8.53;100.00;99944.63;10222081;28;20647;-70
2023/11/18 23:11:31;;;;;;;6.82;4.53;;;;;;;8.55;100.00;99960.44;10204802;28;20366;-70
2023/11/18 23:16:33;;;;;;;5.60;4.00;;;;;;;8.57;100.00;99966.47;10217359;28;20059;-72